Time,TemperatureF,DewpointF,PressureIn,WindDirection,WindDirectionDegrees,WindSpeedMPH,WindSpeedGustMPH,Humidity,HourlyPrecipIn,Conditions,Clouds,dailyrainin,SoftwareType,DateUTC
2013-01-19 00:00:00,33.0,17.3,30.39,West,270,6.0,15.0,52,0.00,,---,0.00,VWS V14.01,2013-01-19 07:00:00,
2013-01-19 00:10:00,33.0,16.9,30.39,West,270,11.0,15.0,51,0.00,,---,0.00,VWS V14.01,2013-01-19 07:10:00,
2013-01-19 00:20:00,34.0,17.8,30.39,WNW,292,16.0,16.0,51,0.00,,---,0.00,VWS V14.01,2013-01-19 07:20:00,
2013-01-19 00:30:00,33.0,16.9,30.39,West,270,10.0,16.0,51,0.00,,---,0.00,VWS V14.01,2013-01-19 07:30:00,
2013-01-19 00:40:00,33.0,17.3,30.39,West,270,10.0,15.0,52,0.00,,---,0.00,VWS V14.01,2013-01-19 07:40:00,
2013-01-19 00:50:00,33.0,17.8,30.39,SE,135,6.0,15.0,53,0.00,,---,0.00,VWS V14.01,2013-01-19 07:50:00,
2013-01-19 01:00:00,33.0,17.8,30.39,West,270,8.0,13.0,53,0.00,,---,0.00,VWS V14.01,2013-01-19 08:00:00,
2013-01-19 01:10:00,33.0,16.4,30.39,South,180,7.0,16.0,50,0.00,,---,0.00,VWS V14.01,2013-01-19 08:10:00,
2013-01-19 01:20:00,33.0,16.4,30.40,West,270,10.0,14.0,50,0.00,,---,0.00,VWS V14.01,2013-01-19 08:20:00,
2013-01-19 01:30:00,33.0,16.4,30.40,WNW,292,13.0,16.0,50,0.00,,---,0.00,VWS V14.01,2013-01-19 08:30:00,
2013-01-19 01:40:00,33.0,16.4,30.40,West,270,10.0,14.0,50,0.00,,---,0.00,VWS V14.01,2013-01-19 08:40:00,
2013-01-19 01:50:00,33.0,16.4,30.41,West,270,8.0,15.0,50,0.00,,---,0.00,VWS V14.01,2013-01-19 08:50:00,
2013-01-19 02:01:00,31.0,15.9,30.41,West,270,7.0,12.0,53,0.00,,---,0.00,VWS V14.01,2013-01-19 09:01:00,
2013-01-19 02:10:00,33.0,16.9,30.41,West,270,11.0,15.0,51,0.00,,---,0.00,VWS V14.01,2013-01-19 09:10:00,
2013-01-19 02:20:00,33.0,16.4,30.40,SSW,202,10.0,17.0,50,0.00,,---,0.00,VWS V14.01,2013-01-19 09:20:00,
2013-01-19 02:30:00,33.0,15.9,30.40,SSW,202,12.0,15.0,49,0.00,,---,0.00,VWS V14.01,2013-01-19 09:30:00,
2013-01-19 02:40:00,33.0,15.9,30.41,WNW,292,12.0,17.0,49,0.00,,---,0.00,VWS V14.01,2013-01-19 09:40:00,
2013-01-19 02:50:00,32.0,15.9,30.41,West,270,12.0,17.0,51,0.00,,---,0.00,VWS V14.01,2013-01-19 09:50:00,
2013-01-19 03:00:00,31.0,15.4,30.41,West,270,11.0,14.0,52,0.00,,---,0.00,VWS V14.01,2013-01-19 10:00:00,
2013-01-19 03:10:00,31.0,15.9,30.40,West,270,10.0,14.0,53,0.00,,---,0.00,VWS V14.01,2013-01-19 10:10:00,
2013-01-19 03:20:00,31.0,15.9,30.40,West,270,12.0,15.0,53,0.00,,---,0.00,VWS V14.01,2013-01-19 10:20:00,
2013-01-19 03:30:00,31.0,15.9,30.40,West,270,12.0,15.0,53,0.00,,---,0.00,VWS V14.01,2013-01-19 10:30:00,
2013-01-19 03:40:00,31.0,15.9,30.41,NNW,337,0.0,14.0,53,0.00,,---,0.00,VWS V14.01,2013-01-19 10:40:00,
2013-01-19 03:50:00,30.0,15.0,30.41,NNW,337,0.0,10.0,53,0.00,,---,0.00,VWS V14.01,2013-01-19 10:50:00,
2013-01-19 04:00:00,28.0,14.8,30.42,North,360,0.0,0.0,57,0.00,,---,0.00,VWS V14.01,2013-01-19 11:00:00,
2013-01-19 04:10:00,28.0,15.5,30.43,NNE,22,0.0,0.0,59,0.00,,---,0.00,VWS V14.01,2013-01-19 11:10:00,
2013-01-19 05:50:00,25.0,15.6,30.44,WNW,292,0.0,0.0,67,0.00,,---,0.00,VWS V14.01,2013-01-19 12:50:00,
2013-01-19 06:00:00,26.0,16.2,30.44,WNW,292,0.0,0.0,66,0.00,,---,0.00,VWS V14.01,2013-01-19 13:00:00,
2013-01-19 06:10:00,25.0,15.3,30.45,NW,315,0.0,0.0,66,0.00,,---,0.00,VWS V14.01,2013-01-19 13:10:00,
2013-01-19 06:20:00,23.0,13.7,30.45,WNW,292,0.0,0.0,67,0.00,,---,0.00,VWS V14.01,2013-01-19 13:20:00,
2013-01-19 06:30:00,23.0,14.4,30.45,North,360,0.0,0.0,69,0.00,,---,0.00,VWS V14.01,2013-01-19 13:30:00,
2013-01-19 06:40:00,24.0,15.3,30.46,WNW,292,0.0,0.0,69,0.00,,---,0.00,VWS V14.01,2013-01-19 13:40:00,
2013-01-19 06:50:00,26.0,16.2,30.46,WNW,292,0.0,0.0,66,0.00,,---,0.00,VWS V14.01,2013-01-19 13:50:00,
2013-01-19 07:00:00,25.0,15.3,30.46,North,360,0.0,0.0,66,0.00,,---,0.00,VWS V14.01,2013-01-19 14:00:00,
2013-01-19 07:10:00,25.0,15.3,30.46,West,270,0.0,0.0,66,0.00,,---,0.00,VWS V14.01,2013-01-19 14:10:00,
2013-01-19 07:20:00,26.0,15.5,30.47,WNW,292,9.0,11.0,64,0.00,,---,0.00,VWS V14.01,2013-01-19 14:20:00,
2013-01-19 07:30:00,26.0,15.1,30.46,WNW,292,4.0,13.0,63,0.00,,---,0.00,VWS V14.01,2013-01-19 14:30:00,
2013-01-19 07:40:00,27.0,16.1,30.46,NNW,337,0.0,7.0,63,0.00,,---,0.00,VWS V14.01,2013-01-19 14:40:00,
2013-01-19 07:50:00,29.0,16.5,30.46,North,360,0.0,0.0,59,0.00,,---,0.00,VWS V14.01,2013-01-19 14:50:00,
2013-01-19 08:00:00,31.0,17.6,30.46,North,360,0.0,0.0,57,0.00,,---,0.00,VWS V14.01,2013-01-19 15:00:00,
2013-01-19 08:10:00,32.0,16.8,30.45,North,360,0.0,8.0,53,0.00,,---,0.00,VWS V14.01,2013-01-19 15:10:00,
2013-01-19 08:20:00,33.0,16.4,30.45,ENE,67,0.0,0.0,50,0.00,,---,0.00,VWS V14.01,2013-01-19 15:20:00,
2013-01-19 08:30:00,32.0,15.9,30.45,NE,45,0.0,5.0,51,0.00,,---,0.00,VWS V14.01,2013-01-19 15:30:00,
2013-01-19 08:40:00,34.0,16.9,30.44,North,360,0.0,0.0,49,0.00,,---,0.00,VWS V14.01,2013-01-19 15:40:00,
2013-01-19 08:50:00,35.0,16.8,30.45,North,360,0.0,0.0,47,0.00,,---,0.00,VWS V14.01,2013-01-19 15:50:00,
2013-01-19 09:00:00,37.0,17.1,30.45,NE,45,0.0,0.0,44,0.00,,---,0.00,VWS V14.01,2013-01-19 16:00:00,
2013-01-19 09:10:00,38.0,17.0,30.44,NW,315,0.0,0.0,42,0.00,,---,0.00,VWS V14.01,2013-01-19 16:10:00,
2013-01-19 09:20:00,39.0,17.9,30.44,ENE,67,0.0,0.0,42,0.00,,---,0.00,VWS V14.01,2013-01-19 16:20:00,
2013-01-19 09:30:00,40.0,17.6,30.44,NE,45,0.0,0.0,40,0.00,,---,0.00,VWS V14.01,2013-01-19 16:30:00,
2013-01-19 09:40:00,39.0,17.3,30.44,NE,45,5.0,10.0,41,0.00,,---,0.00,VWS V14.01,2013-01-19 16:40:00,
2013-01-19 09:50:00,39.0,17.3,30.44,SSE,157,8.0,10.0,41,0.00,,---,0.00,VWS V14.01,2013-01-19 16:50:00,
2013-01-19 10:00:00,41.0,18.0,30.44,NNW,337,3.0,8.0,39,0.00,,---,0.00,VWS V14.01,2013-01-19 17:00:00,
2013-01-19 10:10:00,42.0,17.6,30.43,North,360,0.0,3.0,37,0.00,,---,0.00,VWS V14.01,2013-01-19 17:10:00,
2013-01-19 10:20:00,43.0,17.9,30.43,NE,45,4.0,4.0,36,0.00,,---,0.00,VWS V14.01,2013-01-19 17:20:00,
2013-01-19 10:30:00,43.0,16.6,30.43,NW,315,0.0,7.0,34,0.00,,---,0.00,VWS V14.01,2013-01-19 17:30:00,
2013-01-19 10:40:00,44.0,18.1,30.43,North,360,3.0,8.0,35,0.00,,---,0.00,VWS V14.01,2013-01-19 17:40:00,
2013-01-19 10:50:00,45.0,17.6,30.43,NNW,337,0.0,10.0,33,0.00,,---,0.00,VWS V14.01,2013-01-19 17:50:00,
2013-01-19 11:00:00,45.0,17.6,30.42,North,360,0.0,8.0,33,0.00,,---,0.00,VWS V14.01,2013-01-19 18:00:00,
2013-01-19 11:10:00,45.0,16.9,30.42,WNW,292,0.0,5.0,32,0.00,,---,0.00,VWS V14.01,2013-01-19 18:10:00,
2013-01-19 11:30:00,46.0,17.8,30.40,ENE,67,1.0,7.0,32,0.00,,---,0.00,VWS V14.01,2013-01-19 18:30:00,
2013-01-19 11:40:00,47.0,17.2,30.40,NW,315,1.0,6.0,30,0.00,,---,0.00,VWS V14.01,2013-01-19 18:40:00,
2013-01-19 11:50:00,48.0,18.1,30.39,North,360,0.0,6.0,30,0.00,,---,0.00,VWS V14.01,2013-01-19 18:50:00,
2013-01-19 12:00:00,48.0,17.3,30.39,NE,45,1.0,5.0,29,0.00,,---,0.00,VWS V14.01,2013-01-19 19:00:00,
2013-01-19 12:10:00,48.0,17.3,30.37,SE,135,0.0,2.0,29,0.00,,---,0.00,VWS V14.01,2013-01-19 19:10:00,
2013-01-19 12:20:00,48.0,18.1,30.37,SSE,157,0.0,6.0,30,0.00,,---,0.00,VWS V14.01,2013-01-19 19:20:00,
2013-01-19 12:30:00,48.0,18.1,30.37,ESE,112,0.0,4.0,30,0.00,,---,0.00,VWS V14.01,2013-01-19 19:30:00,
2013-01-19 12:40:00,48.0,18.1,30.37,ESE,112,0.0,6.0,30,0.00,,---,0.00,VWS V14.01,2013-01-19 19:40:00,
2013-01-19 12:50:00,48.0,18.1,30.36,East,90,0.0,8.0,30,0.00,,---,0.00,VWS V14.01,2013-01-19 19:50:00,
2013-01-19 13:00:00,48.0,18.1,30.36,ESE,112,1.0,6.0,30,0.00,,---,0.00,VWS V14.01,2013-01-19 20:00:00,
2013-01-19 13:10:00,49.0,17.3,30.35,East,90,0.0,1.0,28,0.00,,---,0.00,VWS V14.01,2013-01-19 20:10:00,
2013-01-19 13:20:00,51.0,18.2,30.35,ESE,112,0.0,3.0,27,0.00,,---,0.00,VWS V14.01,2013-01-19 20:20:00,
2013-01-19 13:30:00,50.0,17.4,30.35,NE,45,0.0,3.0,27,0.00,,---,0.00,VWS V14.01,2013-01-19 20:30:00,
2013-01-19 13:40:00,51.0,15.5,30.35,ENE,67,0.0,7.0,24,0.00,,---,0.00,VWS V14.01,2013-01-19 20:40:00,
2013-01-19 13:50:00,51.0,14.5,30.33,NE,45,0.0,4.0,23,0.00,,---,0.00,VWS V14.01,2013-01-19 20:50:00,
2013-01-19 14:00:00,52.0,16.4,30.33,NNW,337,0.0,5.0,24,0.00,,---,0.00,VWS V14.01,2013-01-19 21:00:00,
2013-01-19 14:30:00,52.0,15.4,30.33,NNW,337,0.0,8.0,23,0.00,,---,0.00,VWS V14.01,2013-01-19 21:30:00,
2013-01-19 14:40:00,53.0,16.2,30.33,NE,45,0.0,2.0,23,0.00,,---,0.00,VWS V14.01,2013-01-19 21:40:00,
2013-01-19 15:00:00,54.0,16.0,30.33,West,270,0.0,8.0,22,0.00,,---,0.00,VWS V14.01,2013-01-19 22:00:00,
2013-01-19 15:10:00,54.0,15.0,30.33,North,360,4.0,7.0,21,0.00,,---,0.00,VWS V14.01,2013-01-19 22:10:00,
2013-01-19 15:20:00,54.0,15.0,30.33,North,360,0.0,6.0,21,0.00,,---,0.00,VWS V14.01,2013-01-19 22:20:00,
2013-01-19 15:30:00,52.0,15.4,30.33,West,270,9.0,9.0,23,0.00,,---,0.00,VWS V14.01,2013-01-19 22:30:00,
2013-01-19 15:40:00,51.0,14.5,30.33,West,270,8.0,10.0,23,0.00,,---,0.00,VWS V14.01,2013-01-19 22:40:00,
2013-01-19 15:50:00,52.0,17.3,30.34,WNW,292,0.0,12.0,25,0.00,,---,0.00,VWS V14.01,2013-01-19 22:50:00,
2013-01-19 16:10:00,51.0,15.5,30.34,NW,315,0.0,10.0,24,0.00,,---,0.00,VWS V14.01,2013-01-19 23:10:00,
2013-01-19 16:20:00,52.0,16.4,30.34,NNW,337,3.0,8.0,24,0.00,,---,0.00,VWS V14.01,2013-01-19 23:20:00,
2013-01-19 16:30:00,52.0,18.2,30.35,NW,315,4.0,8.0,26,0.00,,---,0.00,VWS V14.01,2013-01-19 23:30:00,
2013-01-19 16:40:00,51.0,16.4,30.35,North,360,0.0,6.0,25,0.00,,---,0.00,VWS V14.01,2013-01-19 23:40:00,
2013-01-19 17:00:00,47.0,17.2,30.36,WNW,292,8.0,10.0,30,0.00,,---,0.00,VWS V14.01,2013-01-20 00:00:00,
2013-01-19 17:10:00,46.0,17.1,30.37,NW,315,0.0,12.0,31,0.00,,---,0.00,VWS V14.01,2013-01-20 00:10:00,
2013-01-19 17:20:00,45.0,16.9,30.37,NNW,337,0.0,10.0,32,0.00,,---,0.00,VWS V14.01,2013-01-20 00:20:00,
2013-01-19 17:30:00,43.0,16.6,30.38,NNW,337,0.0,0.0,34,0.00,,---,0.00,VWS V14.01,2013-01-20 00:30:00,
2013-01-19 17:40:00,42.0,17.0,30.39,West,270,0.0,7.0,36,0.00,,---,0.00,VWS V14.01,2013-01-20 00:40:00,
2013-01-19 17:50:00,41.0,16.7,30.40,West,270,0.0,0.0,37,0.00,,---,0.00,VWS V14.01,2013-01-20 00:50:00,
2013-01-19 18:00:00,40.0,16.5,30.40,WNW,292,7.0,7.0,38,0.00,,---,0.00,VWS V14.01,2013-01-20 01:00:00,
2013-01-19 18:10:00,40.0,17.1,30.41,WNW,292,0.0,9.0,39,0.00,,---,0.00,VWS V14.01,2013-01-20 01:10:00,
2013-01-19 18:30:00,39.0,16.2,30.41,NW,315,0.0,9.0,39,0.00,,---,0.00,VWS V14.01,2013-01-20 01:30:00,
2013-01-19 18:50:00,38.0,15.8,30.43,NNW,337,7.0,8.0,40,0.00,,---,0.00,VWS V14.01,2013-01-20 01:50:00,
2013-01-19 19:00:00,38.0,16.4,30.43,NW,315,4.0,9.0,41,0.00,,---,0.00,VWS V14.01,2013-01-20 02:00:00,
2013-01-19 19:10:00,38.0,15.8,30.43,NW,315,0.0,10.0,40,0.00,,---,0.00,VWS V14.01,2013-01-20 02:10:00,
2013-01-19 19:20:00,38.0,16.4,30.43,West,270,6.0,10.0,41,0.00,,---,0.00,VWS V14.01,2013-01-20 02:20:00,
2013-01-19 19:30:00,37.0,15.5,30.43,WNW,292,8.0,10.0,41,0.00,,---,0.00,VWS V14.01,2013-01-20 02:30:00,
2013-01-19 19:40:00,37.0,15.5,30.43,West,270,5.0,13.0,41,0.00,,---,0.00,VWS V14.01,2013-01-20 02:40:00,
2013-01-19 20:00:00,36.0,14.6,30.43,WNW,292,6.0,11.0,41,0.00,,---,0.00,VWS V14.01,2013-01-20 03:00:00,
2013-01-19 20:10:00,36.0,15.1,30.43,West,270,8.0,10.0,42,0.00,,---,0.00,VWS V14.01,2013-01-20 03:10:00,
2013-01-19 20:20:00,36.0,15.1,30.44,West,270,4.0,11.0,42,0.00,,---,0.00,VWS V14.01,2013-01-20 03:20:00,
2013-01-19 20:30:00,36.0,15.1,30.44,WNW,292,10.0,14.0,42,0.00,,---,0.00,VWS V14.01,2013-01-20 03:30:00,
2013-01-19 20:40:00,35.0,14.8,30.44,WNW,292,11.0,12.0,43,0.00,,---,0.00,VWS V14.01,2013-01-20 03:40:00,
2013-01-19 20:50:00,35.0,15.3,30.44,NW,315,8.0,15.0,44,0.00,,---,0.00,VWS V14.01,2013-01-20 03:50:00,
2013-01-19 21:00:00,35.0,15.3,30.44,West,270,7.0,12.0,44,0.00,,---,0.00,VWS V14.01,2013-01-20 04:00:00,
2013-01-19 21:10:00,35.0,15.3,30.44,West,270,7.0,10.0,44,0.00,,---,0.00,VWS V14.01,2013-01-20 04:10:00,
2013-01-19 21:20:00,34.0,14.9,30.44,WNW,292,9.0,10.0,45,0.00,,---,0.00,VWS V14.01,2013-01-20 04:20:00,
2013-01-19 21:30:00,34.0,15.4,30.45,WNW,292,9.0,10.0,46,0.00,,---,0.00,VWS V14.01,2013-01-20 04:30:00,
2013-01-19 21:40:00,34.0,15.4,30.45,WNW,292,8.0,10.0,46,0.00,,---,0.00,VWS V14.01,2013-01-20 04:40:00,
2013-01-19 21:50:00,34.0,15.9,30.45,West,270,9.0,10.0,47,0.00,,---,0.00,VWS V14.01,2013-01-20 04:50:00,
2013-01-19 22:10:00,32.0,16.4,30.46,North,360,0.0,6.0,52,0.00,,---,0.00,VWS V14.01,2013-01-20 05:10:00,
2013-01-19 22:20:00,32.0,16.8,30.46,NNE,22,0.0,0.0,53,0.00,,---,0.00,VWS V14.01,2013-01-20 05:20:00,
2013-01-19 22:30:00,31.0,15.9,30.47,NNW,337,0.0,0.0,53,0.00,,---,0.00,VWS V14.01,2013-01-20 05:30:00,
2013-01-19 22:40:00,31.0,15.4,30.47,North,360,0.0,0.0,52,0.00,,---,0.00,VWS V14.01,2013-01-20 05:40:00,
2013-01-19 22:50:00,31.0,15.4,30.47,North,360,0.0,0.0,52,0.00,,---,0.00,VWS V14.01,2013-01-20 05:50:00,
2013-01-19 23:00:00,30.0,14.5,30.48,NNW,337,0.0,0.0,52,0.00,,---,0.00,VWS V14.01,2013-01-20 06:00:00,
2013-01-19 23:10:00,30.0,14.5,30.48,NNW,337,0.0,0.0,52,0.00,,---,0.00,VWS V14.01,2013-01-20 06:10:00,
2013-01-19 23:20:00,29.0,14.9,30.48,NNW,337,0.0,0.0,55,0.00,,---,0.00,VWS V14.01,2013-01-20 06:20:00,
2013-01-19 23:30:00,29.0,14.9,30.47,NNW,337,0.0,0.0,55,0.00,,---,0.00,VWS V14.01,2013-01-20 06:30:00,
2013-01-19 23:40:00,29.0,14.4,30.48,West,270,0.0,0.0,54,0.00,,---,0.00,VWS V14.01,2013-01-20 06:40:00,
2013-01-19 23:50:00,29.0,13.6,30.48,West,270,0.0,0.0,52,0.00,,---,0.00,VWS V14.01,2013-01-20 06:50:00,